createdAt,value
2019-05-12T00:00:21.572Z,8.42
2019-05-12T00:01:21.567Z,8.39
2019-05-12T00:02:21.563Z,8.49
2019-05-12T00:03:21.552Z,8.47
2019-05-12T00:04:21.543Z,8.37
2019-05-12T00:05:21.528Z,8.39
2019-05-12T00:06:21.521Z,8.39
2019-05-12T00:07:21.511Z,8.45
2019-05-12T00:08:21.500Z,8.45
2019-05-12T00:09:21.495Z,8.34
2019-05-12T00:10:21.485Z,8.34
2019-05-12T00:11:21.479Z,8.34
2019-05-12T00:12:21.469Z,8.29
2019-05-12T00:13:21.451Z,8.28
2019-05-12T00:14:21.443Z,8.27
2019-05-12T00:15:21.438Z,8.24
2019-05-12T00:16:21.427Z,8.13
2019-05-12T00:17:21.414Z,8.12
2019-05-12T00:18:21.411Z,8.12
2019-05-12T00:19:21.397Z,8.12
2019-05-12T00:20:21.389Z,8.10
2019-05-12T00:21:21.383Z,8.17
2019-05-12T00:22:21.375Z,8.13
2019-05-12T00:23:27.472Z,8.21
2019-05-12T00:24:21.354Z,8.03
2019-05-12T00:25:21.342Z,8.06
2019-05-12T00:26:21.333Z,8.03
2019-05-12T00:27:21.321Z,7.99
2019-05-12T00:28:21.310Z,8.03
2019-05-12T00:29:21.305Z,8.00
2019-05-12T00:30:21.303Z,8.00
2019-05-12T00:31:21.281Z,8.07
2019-05-12T00:32:21.276Z,8.00
2019-05-12T00:33:21.266Z,7.94
2019-05-12T00:34:21.257Z,7.95
2019-05-12T00:35:21.250Z,8.00
2019-05-12T00:36:21.241Z,7.89
2019-05-12T00:37:21.228Z,7.95
2019-05-12T00:38:21.218Z,7.88
2019-05-12T00:39:21.208Z,7.86
2019-05-12T00:40:21.209Z,7.85
2019-05-12T00:41:21.193Z,7.85
2019-05-12T00:42:21.184Z,7.88
2019-05-12T00:43:21.172Z,7.91
2019-05-12T00:44:21.160Z,7.85
2019-05-12T00:45:21.150Z,7.85
2019-05-12T00:46:21.138Z,7.89
2019-05-12T00:47:21.132Z,7.86
2019-05-12T00:48:21.122Z,7.91
2019-05-12T00:49:21.108Z,7.91
2019-05-12T00:50:21.098Z,7.89
2019-05-12T00:51:21.095Z,7.89
2019-05-12T00:52:21.087Z,7.96
2019-05-12T00:53:34.801Z,7.88
2019-05-12T00:54:21.067Z,8.03
2019-05-12T00:55:21.060Z,8.00
2019-05-12T00:56:21.047Z,8.06
2019-05-12T00:57:21.036Z,7.95
2019-05-12T00:58:21.025Z,7.94
2019-05-12T00:59:21.014Z,7.99
2019-05-12T01:00:21.002Z,7.92
2019-05-12T01:01:20.998Z,8.02
2019-05-12T01:02:20.990Z,8.02
2019-05-12T01:03:20.989Z,8.03
2019-05-12T01:04:20.965Z,8.07
2019-05-12T01:05:20.961Z,7.99
2019-05-12T01:06:20.952Z,8.10
2019-05-12T01:07:20.945Z,8.06
2019-05-12T01:08:20.936Z,8.12
2019-05-12T01:09:20.922Z,8.10
2019-05-12T01:10:20.911Z,8.18
2019-05-12T01:11:20.903Z,8.10
2019-05-12T01:12:20.891Z,8.17
2019-05-12T01:13:20.887Z,8.24
2019-05-12T01:14:20.878Z,8.18
2019-05-12T01:15:20.866Z,8.20
2019-05-12T01:16:20.857Z,8.24
2019-05-12T01:17:20.843Z,8.32
2019-05-12T01:18:20.835Z,8.31
2019-05-12T01:19:20.831Z,8.34
2019-05-12T01:20:20.819Z,8.32
2019-05-12T01:21:20.807Z,8.32
2019-05-12T01:22:20.797Z,8.31
2019-05-12T01:23:23.325Z,8.32
2019-05-12T01:24:20.787Z,8.43
2019-05-12T01:25:20.777Z,8.43
2019-05-12T01:26:20.770Z,8.36
2019-05-12T01:27:20.756Z,8.36
2019-05-12T01:28:20.748Z,8.32
2019-05-12T01:29:20.735Z,8.32
2019-05-12T01:30:20.726Z,8.42
2019-05-12T01:31:20.713Z,8.32
2019-05-12T01:32:20.703Z,8.27
2019-05-12T01:33:20.700Z,8.29
2019-05-12T01:34:20.689Z,8.34
2019-05-12T01:35:20.677Z,8.36
2019-05-12T01:36:20.668Z,8.34
2019-05-12T01:37:20.661Z,8.45
2019-05-12T01:38:20.655Z,8.36
2019-05-12T01:39:20.648Z,8.42
2019-05-12T01:40:20.638Z,8.45
2019-05-12T01:41:20.623Z,8.40
2019-05-12T01:42:20.616Z,8.42
2019-05-12T01:43:21.150Z,8.54
2019-05-12T01:44:20.594Z,8.47
2019-05-12T01:45:20.588Z,8.49
2019-05-12T01:46:20.580Z,8.50
2019-05-12T01:47:20.573Z,8.55
2019-05-12T01:48:20.562Z,8.60
2019-05-12T01:49:20.551Z,8.65
2019-05-12T01:50:20.543Z,8.60
2019-05-12T01:51:20.535Z,8.55
2019-05-12T01:52:20.553Z,8.61
2019-05-12T01:53:20.514Z,8.55
2019-05-12T01:54:20.507Z,8.64
2019-05-12T01:55:20.493Z,8.61
2019-05-12T01:56:20.485Z,8.64
2019-05-12T01:57:20.481Z,8.71
2019-05-12T01:58:20.471Z,8.67
2019-05-12T01:59:20.463Z,8.79
2019-05-12T02:00:20.452Z,8.73
2019-05-12T02:01:20.439Z,8.71
2019-05-12T02:02:20.430Z,8.73
2019-05-12T02:03:20.425Z,8.76
2019-05-12T02:04:20.417Z,8.76
2019-05-12T02:05:20.410Z,8.73
2019-05-12T02:06:20.401Z,8.78
2019-05-12T02:07:20.387Z,8.79
2019-05-12T02:08:20.378Z,8.83
2019-05-12T02:09:20.373Z,8.86
2019-05-12T02:10:20.364Z,8.85
2019-05-12T02:11:20.354Z,8.94
2019-05-12T02:12:20.343Z,8.88
2019-05-12T02:13:20.331Z,8.93
2019-05-12T02:14:20.322Z,8.86
2019-05-12T02:15:20.313Z,8.85
2019-05-12T02:16:20.304Z,8.88
2019-05-12T02:17:20.299Z,8.83
2019-05-12T02:18:20.290Z,8.88
2019-05-12T02:19:20.283Z,8.97
2019-05-12T02:20:20.275Z,8.88
2019-05-12T02:21:20.260Z,8.94
2019-05-12T02:22:20.253Z,8.91
2019-05-12T02:23:20.248Z,8.97
2019-05-12T02:24:26.689Z,8.94
2019-05-12T02:25:20.227Z,9.08
2019-05-12T02:26:20.217Z,8.98
2019-05-12T02:27:20.205Z,8.98
2019-05-12T02:28:20.197Z,8.97
2019-05-12T02:29:20.193Z,9.13
2019-05-12T02:30:20.649Z,9.01
2019-05-12T02:31:20.826Z,9.06
2019-05-12T02:32:20.164Z,9.13
2019-05-12T02:33:20.153Z,9.10
2019-05-12T02:34:20.150Z,9.04
2019-05-12T02:35:20.143Z,9.12
2019-05-12T02:36:20.128Z,9.19
2019-05-12T02:37:20.126Z,9.13
2019-05-12T02:38:20.117Z,9.12
2019-05-12T02:39:20.112Z,9.15
2019-05-12T02:40:20.095Z,9.10
2019-05-12T02:41:20.089Z,9.15
2019-05-12T02:42:20.081Z,9.08
2019-05-12T02:43:20.075Z,9.17
2019-05-12T02:44:20.061Z,9.04
2019-05-12T02:45:20.048Z,9.12
2019-05-12T02:46:20.039Z,9.08
2019-05-12T02:47:20.033Z,9.12
2019-05-12T02:48:20.023Z,9.23
2019-05-12T02:49:20.018Z,9.19
2019-05-12T02:50:20.008Z,9.17
2019-05-12T02:51:19.999Z,9.23
2019-05-12T02:52:19.991Z,9.17
2019-05-12T02:53:19.975Z,9.08
2019-05-12T02:54:19.971Z,9.19
2019-05-12T02:55:19.965Z,9.19
2019-05-12T02:56:19.955Z,9.19
2019-05-12T02:57:19.941Z,9.10
2019-05-12T02:58:19.933Z,9.08
2019-05-12T02:59:19.930Z,9.08
2019-05-12T03:00:19.929Z,9.04
2019-05-12T03:01:19.914Z,8.97
2019-05-12T03:02:19.904Z,9.03
2019-05-12T03:03:19.895Z,8.89
2019-05-12T03:04:19.885Z,8.89
2019-05-12T03:05:19.875Z,8.83
2019-05-12T03:06:19.880Z,8.85
2019-05-12T03:07:19.852Z,8.83
2019-05-12T03:08:19.843Z,8.82
2019-05-12T03:09:19.840Z,8.79
2019-05-12T03:10:19.829Z,8.70
2019-05-12T03:11:19.821Z,8.76
2019-05-12T03:12:19.809Z,8.67
2019-05-12T03:13:19.804Z,8.58
2019-05-12T03:14:19.799Z,8.58
2019-05-12T03:15:19.789Z,8.60
2019-05-12T03:16:19.779Z,8.55
2019-05-12T03:17:19.767Z,8.60
2019-05-12T03:18:19.760Z,8.54
2019-05-12T03:19:19.748Z,8.54
2019-05-12T03:20:19.745Z,8.54
2019-05-12T03:21:19.733Z,8.45
2019-05-12T03:22:19.728Z,8.49
2019-05-12T03:23:19.845Z,8.43
2019-05-12T03:24:19.714Z,8.46
2019-05-12T03:25:24.470Z,8.42
2019-05-12T03:26:19.680Z,8.43
2019-05-12T03:27:19.678Z,8.37
2019-05-12T03:28:19.668Z,8.37
2019-05-12T03:29:19.653Z,8.34
2019-05-12T03:30:20.047Z,8.40
2019-05-12T03:31:25.301Z,8.34
2019-05-12T03:32:19.638Z,8.37
2019-05-12T03:33:20.404Z,8.32
2019-05-12T03:34:20.900Z,8.29
2019-05-12T03:35:19.648Z,8.31
2019-05-12T03:36:19.605Z,8.27
2019-05-12T03:37:19.587Z,8.32
2019-05-12T03:38:19.574Z,8.32
2019-05-12T03:39:19.567Z,8.34
2019-05-12T03:40:19.554Z,8.32
2019-05-12T03:41:19.548Z,8.29
2019-05-12T03:42:19.539Z,8.34
2019-05-12T03:43:19.525Z,8.29
2019-05-12T03:44:19.514Z,8.32
2019-05-12T03:45:19.511Z,8.34
2019-05-12T03:46:19.502Z,8.28
2019-05-12T03:47:19.494Z,8.32
2019-05-12T03:48:19.484Z,8.40
2019-05-12T03:49:19.473Z,8.40
2019-05-12T03:50:19.463Z,8.34
2019-05-12T03:51:19.456Z,8.27
2019-05-12T03:52:19.440Z,8.34
2019-05-12T03:53:19.439Z,8.27
2019-05-12T03:54:19.425Z,8.29
2019-05-12T03:55:31.811Z,8.37
2019-05-12T03:56:19.411Z,8.32
2019-05-12T03:57:19.397Z,8.32
2019-05-12T03:58:19.389Z,8.32
2019-05-12T03:59:19.384Z,8.37
2019-05-12T04:00:19.373Z,8.32
2019-05-12T04:01:19.362Z,8.37
2019-05-12T04:02:19.353Z,8.34
2019-05-12T04:03:19.339Z,8.39
2019-05-12T04:04:19.336Z,8.39
2019-05-12T04:05:19.325Z,8.40
2019-05-12T04:06:19.318Z,8.45
2019-05-12T04:07:19.308Z,8.39
2019-05-12T04:08:19.301Z,8.39
2019-05-12T04:09:19.293Z,8.47
2019-05-12T04:10:19.275Z,8.42
2019-05-12T04:11:19.269Z,8.52
2019-05-12T04:12:19.271Z,8.49
2019-05-12T04:13:19.255Z,8.61
2019-05-12T04:14:19.249Z,8.58
2019-05-12T04:15:19.241Z,8.65
2019-05-12T04:16:19.246Z,8.64
2019-05-12T04:17:19.227Z,8.68
2019-05-12T04:18:19.215Z,8.63
2019-05-12T04:19:19.200Z,8.79
2019-05-12T04:20:19.187Z,8.71
2019-05-12T04:21:19.176Z,8.78
2019-05-12T04:22:19.168Z,8.75
2019-05-12T04:23:19.156Z,8.78
2019-05-12T04:24:19.154Z,8.86
2019-05-12T04:25:19.142Z,8.75
2019-05-12T04:26:19.161Z,8.73
2019-05-12T04:27:19.137Z,8.76
2019-05-12T04:28:19.118Z,8.83
2019-05-12T04:29:19.107Z,8.85
2019-05-12T04:30:19.095Z,8.91
2019-05-12T04:31:19.092Z,8.93
2019-05-12T04:32:19.082Z,8.86
2019-05-12T04:33:19.073Z,8.98
2019-05-12T04:34:19.491Z,8.96
2019-05-12T04:35:19.051Z,9.03
2019-05-12T04:36:19.041Z,9.04
2019-05-12T04:37:19.037Z,9.12
2019-05-12T04:38:19.027Z,9.13
2019-05-12T04:39:19.027Z,9.10
2019-05-12T04:40:19.010Z,9.04
2019-05-12T04:41:20.104Z,9.13
2019-05-12T04:42:18.989Z,9.16
2019-05-12T04:43:18.983Z,9.16
2019-05-12T04:44:18.990Z,9.27
2019-05-12T04:45:18.969Z,9.32
2019-05-12T04:46:18.962Z,9.31
2019-05-12T04:47:18.954Z,9.38
2019-05-12T04:48:21.445Z,9.42
2019-05-12T04:49:18.935Z,9.42
2019-05-12T04:50:18.927Z,9.52
2019-05-12T04:51:18.918Z,9.50
2019-05-12T04:52:18.908Z,9.53
2019-05-12T04:53:18.894Z,9.60
2019-05-12T04:54:18.894Z,9.67
2019-05-12T04:55:18.888Z,9.70
2019-05-12T04:56:20.624Z,9.71
2019-05-12T04:57:21.248Z,9.73
2019-05-12T04:58:18.865Z,9.77
2019-05-12T04:59:18.845Z,9.70
2019-05-12T05:00:18.842Z,9.77
2019-05-12T05:01:18.833Z,9.78
2019-05-12T05:02:18.842Z,9.81
2019-05-12T05:03:18.814Z,9.86
2019-05-12T05:04:18.806Z,9.89
2019-05-12T05:05:18.806Z,9.91
2019-05-12T05:06:18.790Z,9.95
2019-05-12T05:07:18.797Z,9.96
2019-05-12T05:08:19.881Z,10.04
2019-05-12T05:09:18.766Z,10.09
2019-05-12T05:10:18.756Z,10.17
2019-05-12T05:11:18.748Z,10.24
2019-05-12T05:12:18.740Z,10.26
2019-05-12T05:13:18.735Z,10.26
2019-05-12T05:14:18.729Z,10.32
2019-05-12T05:15:18.718Z,10.29
2019-05-12T05:16:18.717Z,10.51
2019-05-12T05:17:18.698Z,10.46
2019-05-12T05:18:18.696Z,10.49
2019-05-12T05:19:18.685Z,10.62
2019-05-12T05:20:18.678Z,10.65
2019-05-12T05:21:18.664Z,10.58
2019-05-12T05:22:18.657Z,10.68
2019-05-12T05:23:18.651Z,10.69
2019-05-12T05:24:18.644Z,10.70
2019-05-12T05:25:18.640Z,10.87
2019-05-12T05:26:24.328Z,10.87
2019-05-12T05:27:18.625Z,10.83
2019-05-12T05:28:18.617Z,10.87
2019-05-12T05:29:18.604Z,10.90
2019-05-12T05:30:18.599Z,10.91
2019-05-12T05:31:18.589Z,10.87
2019-05-12T05:32:18.580Z,10.95
2019-05-12T05:33:19.968Z,11.05
2019-05-12T05:34:18.569Z,11.05
2019-05-12T05:35:18.559Z,11.13
2019-05-12T05:36:19.922Z,11.16
2019-05-12T05:37:18.548Z,11.24
2019-05-12T05:38:20.752Z,11.30
2019-05-12T05:39:18.536Z,11.49
2019-05-12T05:40:19.799Z,11.60
2019-05-12T05:41:18.518Z,12.21
2019-05-12T05:42:22.183Z,12.71
2019-05-12T05:43:18.889Z,12.70
2019-05-12T05:44:18.494Z,12.70
2019-05-12T05:45:23.370Z,12.71
2019-05-12T05:46:18.486Z,12.76
2019-05-12T05:47:19.862Z,12.77
2019-05-12T05:48:18.472Z,12.79
2019-05-12T05:49:18.460Z,13.14
2019-05-12T05:50:23.750Z,14.11
2019-05-12T05:51:18.452Z,15.12
2019-05-12T05:52:18.445Z,15.84
2019-05-12T05:53:19.857Z,15.78
2019-05-12T05:54:24.765Z,15.52
2019-05-12T05:55:20.354Z,15.53
2019-05-12T05:56:18.515Z,15.73
2019-05-12T05:57:19.966Z,16.06
2019-05-12T05:58:18.414Z,15.76
2019-05-12T05:59:21.889Z,15.67
2019-05-12T06:00:23.103Z,15.56
2019-05-12T06:01:18.393Z,15.73
2019-05-12T06:02:23.157Z,16.34
2019-05-12T06:03:23.424Z,16.29
2019-05-12T06:04:18.382Z,16.37
2019-05-12T06:05:19.893Z,17.06
2019-05-12T06:06:18.378Z,17.47
2019-05-12T06:07:25.513Z,18.44
2019-05-12T06:08:20.710Z,18.69
2019-05-12T06:09:18.366Z,18.41
2019-05-12T06:10:18.362Z,18.04
2019-05-12T06:11:26.495Z,17.76
2019-05-12T06:12:18.355Z,17.45
2019-05-12T06:13:21.164Z,17.24
2019-05-12T06:14:18.345Z,17.10
2019-05-12T06:15:18.341Z,18.26
2019-05-12T06:16:20.668Z,18.99
2019-05-12T06:17:18.340Z,19.94
2019-05-12T06:18:18.338Z,19.47
2019-05-12T06:19:18.339Z,18.96
2019-05-12T06:20:18.337Z,18.68
2019-05-12T06:21:18.334Z,18.28
2019-05-12T06:22:18.542Z,18.57
2019-05-12T06:23:18.330Z,18.71
2019-05-12T06:24:20.050Z,19.75
2019-05-12T06:25:18.329Z,19.12
2019-05-12T06:26:21.029Z,18.87
2019-05-12T06:27:20.987Z,19.06
2019-05-12T06:28:18.315Z,19.79
2019-05-12T06:29:20.566Z,20.25
2019-05-12T06:30:18.317Z,20.90
2019-05-12T06:31:19.079Z,21.43
2019-05-12T06:32:18.316Z,22.09
2019-05-12T06:33:22.829Z,21.61
2019-05-12T06:34:20.801Z,21.36
2019-05-12T06:35:18.314Z,20.68
2019-05-12T06:36:22.185Z,20.69
2019-05-12T06:37:18.319Z,20.30
2019-05-12T06:38:18.317Z,20.87
2019-05-12T06:39:20.585Z,21.61
2019-05-12T06:40:18.316Z,22.36
2019-05-12T06:41:20.436Z,22.51
2019-05-12T06:42:18.322Z,22.26
2019-05-12T06:43:18.320Z,23.00
2019-05-12T06:44:19.569Z,23.52
2019-05-12T06:45:18.323Z,23.78
2019-05-12T06:46:20.891Z,24.15
2019-05-12T06:47:18.323Z,23.99
2019-05-12T06:48:19.432Z,23.53
2019-05-12T06:49:18.335Z,23.56
2019-05-12T06:50:18.334Z,22.86
2019-05-12T06:51:22.950Z,22.74
2019-05-12T06:52:18.341Z,22.38
2019-05-12T06:53:20.346Z,21.63
2019-05-12T06:54:18.344Z,20.83
2019-05-12T06:55:18.351Z,19.82
2019-05-12T06:56:19.945Z,18.69
2019-05-12T06:57:24.467Z,17.63
2019-05-12T06:58:25.946Z,17.33
2019-05-12T06:59:18.385Z,17.24
2019-05-12T07:00:22.226Z,16.80
2019-05-12T07:01:19.673Z,16.70
2019-05-12T07:02:18.369Z,16.33
2019-05-12T07:03:19.458Z,16.34
2019-05-12T07:04:21.180Z,16.34
2019-05-12T07:05:18.368Z,16.42
2019-05-12T07:06:19.955Z,16.25
2019-05-12T07:07:18.385Z,16.27
2019-05-12T07:08:26.609Z,16.22
2019-05-12T07:09:25.062Z,16.23
2019-05-12T07:10:35.568Z,16.30
2019-05-12T07:11:18.368Z,16.30
2019-05-12T07:12:18.367Z,16.27
2019-05-12T07:13:23.369Z,16.14
2019-05-12T07:14:22.315Z,16.03
2019-05-12T07:15:18.393Z,15.85
2019-05-12T07:16:22.898Z,15.78
2019-05-12T07:17:18.376Z,15.64
2019-05-12T07:18:25.973Z,15.60
2019-05-12T07:19:22.675Z,15.43
2019-05-12T07:20:18.359Z,15.37
2019-05-12T07:21:21.086Z,15.28
2019-05-12T07:22:22.547Z,15.05
2019-05-12T07:23:19.754Z,15.05
2019-05-12T07:24:18.353Z,14.97
2019-05-12T07:25:22.817Z,14.86
2019-05-12T07:26:19.633Z,14.87
2019-05-12T07:27:18.347Z,14.93
2019-05-12T07:28:18.345Z,14.90
2019-05-12T07:29:18.336Z,14.80
2019-05-12T07:30:18.332Z,14.72
2019-05-12T07:31:18.334Z,14.78
2019-05-12T07:32:21.758Z,14.69
2019-05-12T07:33:18.330Z,14.59
2019-05-12T07:34:18.328Z,14.57
2019-05-12T07:35:18.325Z,14.48
2019-05-12T07:36:18.320Z,14.29
2019-05-12T07:37:18.314Z,14.21
2019-05-12T07:38:21.440Z,14.16
2019-05-12T07:39:18.310Z,14.09
2019-05-12T07:40:18.953Z,13.96
2019-05-12T07:41:18.300Z,13.94
2019-05-12T07:42:22.721Z,14.04
2019-05-12T07:43:20.523Z,14.11
2019-05-12T07:44:18.285Z,14.06
2019-05-12T07:45:22.362Z,14.04
2019-05-12T07:46:18.280Z,14.24
2019-05-12T07:47:19.308Z,15.74
2019-05-12T07:48:18.274Z,17.12
2019-05-12T07:49:22.681Z,18.47
2019-05-12T07:50:20.686Z,19.52
2019-05-12T07:51:18.259Z,20.63
2019-05-12T07:52:18.255Z,21.71
2019-05-12T07:53:18.258Z,22.24
2019-05-12T07:54:18.257Z,22.81
2019-05-12T07:55:18.255Z,23.57
2019-05-12T07:56:19.595Z,24.00
2019-05-12T07:57:18.249Z,24.29
2019-05-12T07:58:19.387Z,24.46
2019-05-12T07:59:18.255Z,24.61
2019-05-12T08:00:22.816Z,24.49
2019-05-12T08:01:18.254Z,24.94
2019-05-12T08:02:25.499Z,24.12
2019-05-12T08:03:21.202Z,23.50
2019-05-12T08:04:18.268Z,22.59
2019-05-12T08:05:19.855Z,22.97
2019-05-12T08:06:18.280Z,22.23
2019-05-12T08:07:19.878Z,20.48
2019-05-12T08:08:18.285Z,19.42
2019-05-12T08:09:18.288Z,18.86
2019-05-12T08:10:20.069Z,18.49
2019-05-12T08:11:18.315Z,19.75
2019-05-12T08:12:20.976Z,21.06
2019-05-12T08:13:18.819Z,21.93
2019-05-12T08:14:25.820Z,22.89
2019-05-12T08:15:18.311Z,23.45
2019-05-12T08:16:19.499Z,24.00
2019-05-12T08:17:19.546Z,24.74
2019-05-12T08:18:18.326Z,25.48
2019-05-12T08:19:23.774Z,26.31
2019-05-12T08:20:18.334Z,26.08
2019-05-12T08:21:18.334Z,26.54
2019-05-12T08:22:18.871Z,25.02
2019-05-12T08:23:18.348Z,24.99
2019-05-12T08:24:18.352Z,25.36
2019-05-12T08:25:18.857Z,25.24
2019-05-12T08:26:18.829Z,25.48
2019-05-12T08:27:18.379Z,24.29
2019-05-12T08:28:19.581Z,24.15
2019-05-12T08:29:21.508Z,25.12
2019-05-12T08:30:18.400Z,24.19
2019-05-12T08:31:23.543Z,24.94
2019-05-12T08:32:20.245Z,24.77
2019-05-12T08:33:18.425Z,24.75
2019-05-12T08:34:18.432Z,25.60
2019-05-12T08:35:25.792Z,26.71
2019-05-12T08:36:18.447Z,27.35
2019-05-12T08:37:18.460Z,28.06
2019-05-12T08:38:18.470Z,29.10
2019-05-12T08:39:22.885Z,28.79
2019-05-12T08:40:18.489Z,27.43
2019-05-12T08:41:18.495Z,27.76
2019-05-12T08:42:18.506Z,27.99
2019-05-12T08:43:18.519Z,28.32
2019-05-12T08:44:24.558Z,27.91
2019-05-12T08:45:27.356Z,27.52
2019-05-12T08:46:18.557Z,26.51
2019-05-12T08:47:18.564Z,26.19
2019-05-12T08:48:21.600Z,25.49
2019-05-12T08:49:18.590Z,26.12
2019-05-12T08:50:23.275Z,26.36
2019-05-12T08:51:20.109Z,26.28
2019-05-12T08:52:18.620Z,24.59
2019-05-12T08:53:21.324Z,22.79
2019-05-12T08:54:18.638Z,22.86
2019-05-12T08:55:23.994Z,23.53
2019-05-12T08:56:19.860Z,22.84
2019-05-12T08:57:18.671Z,24.39
2019-05-12T08:58:30.362Z,25.29
2019-05-12T08:59:24.187Z,26.76
2019-05-12T09:00:18.701Z,27.81
2019-05-12T09:01:20.457Z,27.77
2019-05-12T09:02:18.717Z,27.66
2019-05-12T09:03:20.541Z,26.78
2019-05-12T09:04:18.740Z,24.63
2019-05-12T09:05:18.758Z,22.15
2019-05-12T09:06:19.808Z,21.45
2019-05-12T09:07:18.787Z,20.88
2019-05-12T09:08:18.771Z,22.17
2019-05-12T09:09:18.787Z,23.37
2019-05-12T09:10:18.793Z,24.14
2019-05-12T09:11:18.812Z,25.29
2019-05-12T09:12:18.812Z,25.94
2019-05-12T09:13:18.815Z,26.32
2019-05-12T09:14:18.826Z,26.36
2019-05-12T09:15:18.838Z,27.35
2019-05-12T09:16:18.848Z,28.23
2019-05-12T09:17:18.859Z,28.28
2019-05-12T09:18:19.132Z,28.28
2019-05-12T09:19:23.889Z,27.06
2019-05-12T09:20:18.887Z,26.53
2019-05-12T09:21:23.681Z,25.72
2019-05-12T09:22:20.842Z,25.94
2019-05-12T09:23:18.922Z,26.31
2019-05-12T09:24:21.709Z,25.75
2019-05-12T09:25:18.940Z,26.12
2019-05-12T09:26:25.003Z,25.85
2019-05-12T09:27:18.965Z,25.31
2019-05-12T09:28:18.974Z,25.17
2019-05-12T09:29:19.000Z,25.29
2019-05-12T09:30:19.014Z,24.89
2019-05-12T09:31:19.515Z,24.31
2019-05-12T09:32:19.026Z,23.68
2019-05-12T09:33:21.328Z,23.21
2019-05-12T09:34:19.040Z,22.64
2019-05-12T09:35:19.063Z,22.24
2019-05-12T09:36:20.023Z,23.19
2019-05-12T09:37:19.063Z,24.30
2019-05-12T09:38:24.098Z,24.87
2019-05-12T09:39:19.075Z,24.42
2019-05-12T09:40:20.658Z,24.29
2019-05-12T09:41:19.092Z,23.74
2019-05-12T09:42:24.021Z,23.54
2019-05-12T09:43:19.108Z,24.06
2019-05-12T09:44:20.405Z,23.99
2019-05-12T09:45:19.117Z,23.92
2019-05-12T09:46:19.121Z,24.02
2019-05-12T09:47:23.211Z,23.56
2019-05-12T09:48:19.137Z,23.42
2019-05-12T09:49:22.810Z,23.56
2019-05-12T09:50:20.492Z,24.36
2019-05-12T09:51:19.158Z,24.84
2019-05-12T09:52:22.271Z,24.86
2019-05-12T09:53:19.173Z,24.87
2019-05-12T09:54:19.178Z,25.56
2019-05-12T09:55:22.032Z,26.03
2019-05-12T09:56:19.192Z,25.56
2019-05-12T09:57:19.191Z,24.98
2019-05-12T09:58:23.025Z,24.53
2019-05-12T09:59:23.127Z,25.39
2019-05-12T10:00:19.209Z,26.28
2019-05-12T10:01:19.222Z,25.66
2019-05-12T10:02:20.912Z,26.08
2019-05-12T10:03:19.240Z,26.71
2019-05-12T10:04:19.786Z,26.19
2019-05-12T10:05:19.251Z,27.09
2019-05-12T10:06:21.292Z,27.53
2019-05-12T10:07:19.271Z,26.06
2019-05-12T10:08:19.280Z,25.81
2019-05-12T10:09:20.004Z,26.47
2019-05-12T10:10:19.295Z,26.31
2019-05-12T10:11:20.891Z,26.71
2019-05-12T10:12:19.330Z,26.65
2019-05-12T10:13:20.412Z,25.63
2019-05-12T10:14:19.332Z,25.85
2019-05-12T10:15:24.709Z,25.75
2019-05-12T10:16:19.353Z,26.57
2019-05-12T10:17:20.236Z,27.18
2019-05-12T10:18:19.370Z,27.91
2019-05-12T10:19:19.376Z,28.85
2019-05-12T10:20:21.552Z,28.98
2019-05-12T10:21:19.402Z,29.10
2019-05-12T10:22:19.411Z,29.39
2019-05-12T10:23:24.041Z,29.11
2019-05-12T10:24:19.427Z,28.17
2019-05-12T10:25:23.269Z,28.27
2019-05-12T10:26:19.457Z,28.92
2019-05-12T10:27:25.675Z,29.12
2019-05-12T10:28:19.482Z,27.71
2019-05-12T10:29:20.814Z,26.24
2019-05-12T10:30:19.503Z,25.04
2019-05-12T10:31:19.525Z,23.96
2019-05-12T10:32:19.527Z,23.56
2019-05-12T10:33:19.542Z,23.15
2019-05-12T10:34:19.553Z,22.74
2019-05-12T10:35:21.332Z,22.23
2019-05-12T10:36:19.574Z,22.24
2019-05-12T10:37:25.313Z,22.29
2019-05-12T10:38:19.591Z,22.54
2019-05-12T10:39:19.605Z,22.97
2019-05-12T10:40:19.612Z,22.67
2019-05-12T10:41:19.618Z,22.48
2019-05-12T10:42:19.623Z,22.96
2019-05-12T10:43:19.634Z,22.57
2019-05-12T10:44:19.641Z,22.75
2019-05-12T10:45:20.717Z,22.60
2019-05-12T10:46:26.760Z,22.64
2019-05-12T10:47:19.666Z,22.27
2019-05-12T10:48:19.672Z,22.24
2019-05-12T10:49:19.679Z,21.98
2019-05-12T10:50:19.681Z,22.12
2019-05-12T10:51:19.685Z,23.00
2019-05-12T10:52:19.690Z,23.54
2019-05-12T10:53:19.700Z,23.97
2019-05-12T10:54:19.707Z,24.99
2019-05-12T10:55:19.708Z,25.51
2019-05-12T10:56:19.714Z,25.39
2019-05-12T10:57:19.738Z,25.02
2019-05-12T10:58:19.730Z,25.51
2019-05-12T10:59:30.188Z,26.42
2019-05-12T11:00:25.317Z,27.30
2019-05-12T11:01:19.751Z,27.59
2019-05-12T11:02:20.399Z,27.46
2019-05-12T11:03:19.795Z,26.72
2019-05-12T11:04:25.081Z,25.75
2019-05-12T11:05:22.959Z,25.53
2019-05-12T11:06:19.796Z,24.98
2019-05-12T11:07:22.878Z,24.70
2019-05-12T11:08:19.813Z,25.12
2019-05-12T11:09:21.257Z,25.44
2019-05-12T11:10:20.307Z,25.23
2019-05-12T11:11:19.837Z,23.44
2019-05-12T11:12:25.178Z,23.37
2019-05-12T11:13:19.848Z,23.39
2019-05-12T11:14:20.345Z,23.74
2019-05-12T11:15:19.868Z,23.56
2019-05-12T11:16:22.892Z,23.54
2019-05-12T11:17:19.887Z,23.21
2019-05-12T11:18:26.127Z,22.84
2019-05-12T11:19:19.898Z,22.54
2019-05-12T11:20:19.906Z,22.36
2019-05-12T11:21:19.910Z,22.63
2019-05-12T11:22:19.915Z,22.20
2019-05-12T11:23:19.923Z,22.01
2019-05-12T11:24:19.930Z,21.96
2019-05-12T11:25:19.941Z,21.91
2019-05-12T11:26:19.946Z,21.86
2019-05-12T11:27:19.962Z,21.67
2019-05-12T11:28:19.952Z,21.52
2019-05-12T11:29:19.962Z,21.24
2019-05-12T11:30:19.967Z,20.81
2019-05-12T11:31:19.983Z,20.60
2019-05-12T11:32:19.975Z,20.41
2019-05-12T11:33:20.063Z,20.37
2019-05-12T11:34:19.979Z,20.20
2019-05-12T11:35:19.981Z,20.23
2019-05-12T11:36:19.985Z,20.13
2019-05-12T11:37:19.993Z,20.51
2019-05-12T11:38:19.997Z,20.54
2019-05-12T11:39:20.001Z,20.48
2019-05-12T11:40:20.003Z,20.53
2019-05-12T11:41:20.426Z,20.63
2019-05-12T11:42:20.007Z,20.63
2019-05-12T11:43:20.013Z,20.88
2019-05-12T11:44:20.019Z,20.76
2019-05-12T11:45:20.128Z,20.85
2019-05-12T11:46:20.017Z,21.05
2019-05-12T11:47:24.340Z,20.91
2019-05-12T11:48:20.021Z,20.83
2019-05-12T11:49:21.777Z,20.69
2019-05-12T11:50:20.031Z,20.63
2019-05-12T11:51:20.704Z,20.44
2019-05-12T11:52:20.032Z,20.42
2019-05-12T11:53:21.845Z,19.65
2019-05-12T11:54:20.032Z,18.97
2019-05-12T11:55:21.436Z,18.87
2019-05-12T11:56:20.037Z,18.93
2019-05-12T11:57:25.396Z,19.09
2019-05-12T11:58:20.043Z,19.35
2019-05-12T11:59:20.041Z,19.60
2019-05-12T12:00:20.043Z,19.78
2019-05-12T12:01:20.046Z,19.89
2019-05-12T12:02:25.013Z,19.87
2019-05-12T12:03:20.047Z,20.22
2019-05-12T12:04:20.048Z,20.19
2019-05-12T12:05:20.045Z,20.33
2019-05-12T12:06:20.061Z,20.68
2019-05-12T12:07:20.050Z,20.72
2019-05-12T12:08:20.047Z,20.69
2019-05-12T12:09:20.056Z,20.56
2019-05-12T12:10:20.053Z,20.60
2019-05-12T12:11:24.724Z,20.69
2019-05-12T12:12:20.058Z,20.64
2019-05-12T12:13:27.675Z,20.44
2019-05-12T12:14:20.055Z,20.31
2019-05-12T12:15:25.135Z,20.42
2019-05-12T12:16:20.060Z,20.33
2019-05-12T12:17:25.078Z,20.19
2019-05-12T12:18:20.057Z,20.12
2019-05-12T12:19:20.056Z,19.75
2019-05-12T12:20:22.324Z,19.71
2019-05-12T12:21:20.067Z,19.52
2019-05-12T12:22:25.390Z,19.32
2019-05-12T12:23:20.066Z,19.34
2019-05-12T12:24:21.422Z,19.35
2019-05-12T12:25:20.061Z,19.49
2019-05-12T12:26:20.239Z,19.47
2019-05-12T12:27:20.063Z,19.31
2019-05-12T12:28:20.060Z,19.50
2019-05-12T12:29:20.063Z,19.49
2019-05-12T12:30:20.242Z,19.53
2019-05-12T12:31:20.062Z,19.72
2019-05-12T12:32:20.562Z,19.85
2019-05-12T12:33:20.064Z,19.97
2019-05-12T12:34:23.680Z,19.97
2019-05-12T12:35:20.065Z,19.98
2019-05-12T12:36:21.085Z,19.78
2019-05-12T12:37:23.973Z,19.92
2019-05-12T12:38:20.061Z,19.71
2019-05-12T12:39:20.060Z,19.53
2019-05-12T12:40:20.070Z,19.57
2019-05-12T12:41:20.063Z,19.61
2019-05-12T12:42:20.063Z,19.46
2019-05-12T12:43:20.059Z,19.05
2019-05-12T12:44:20.058Z,18.90
2019-05-12T12:45:20.054Z,18.32
2019-05-12T12:46:21.570Z,18.17
2019-05-12T12:47:20.059Z,18.21
2019-05-12T12:48:27.736Z,18.26
2019-05-12T12:49:20.049Z,18.21
2019-05-12T12:50:25.209Z,18.34
2019-05-12T12:51:20.052Z,18.34
2019-05-12T12:52:20.049Z,18.49
2019-05-12T12:53:20.053Z,18.42
2019-05-12T12:54:20.051Z,18.50
2019-05-12T12:55:20.050Z,18.47
2019-05-12T12:56:25.152Z,18.47
2019-05-12T12:57:20.044Z,18.47
2019-05-12T12:58:20.992Z,18.57
2019-05-12T12:59:20.042Z,18.66
2019-05-12T13:00:29.756Z,18.54
2019-05-12T13:01:26.778Z,18.46
2019-05-12T13:02:20.040Z,18.31